Time;durP1;ratioP1;P1;durP2;ratioP2;P2;SDS_P1;SDS_P2;PMS_P1;PMS_P2;Temp;Humidity;BMP_temperature;BMP_pressure;BME280_temperature;BME280_humidity;BME280_pressure;Samples;Min_cycle;Max_cycle;Signal;HPM_P1;HPM_P2
2022/08/07 00:02:35;;;;;;;1.70;1.20;;;;;;;;;;5048520;28;20199;-58
2022/08/07 00:05:22;;;;;;;2.00;1.00;;;;;;;;;;5049684;28;20675;-59
2022/08/07 00:08:09;;;;;;;1.10;1.00;;;;;;;;;;5048997;28;20199;-59
2022/08/07 00:10:56;;;;;;;2.13;1.30;;;;;;;;;;5046986;28;20210;-58
2022/08/07 00:13:46;;;;;;;1.70;1.53;;;;;;;;;;5048646;28;20272;-58
2022/08/07 00:16:33;;;;;;;2.47;1.23;;;;;;;;;;5054130;28;20719;-58
2022/08/07 00:19:20;;;;;;;1.83;1.47;;;;;;;;;;5058738;28;20221;-58
2022/08/07 00:22:07;;;;;;;3.23;1.30;;;;;;;;;;5060230;28;20237;-59
2022/08/07 00:24:54;;;;;;;1.87;1.60;;;;;;;;;;5054802;28;20578;-58
2022/08/07 00:27:41;;;;;;;1.23;1.13;;;;;;;;;;5053269;28;20231;-58
2022/08/07 00:30:30;;;;;;;1.43;1.33;;;;;;;;;;5051715;28;20221;-58
2022/08/07 00:33:25;;;;;;;1.10;1.10;;;;;;;;;;5050602;28;20226;-57
2022/08/07 00:36:12;;;;;;;1.47;1.10;;;;;;;;;;5052127;28;20337;-58
2022/08/07 00:39:00;;;;;;;1.53;1.30;;;;;;;;;;5058586;28;20208;-58
2022/08/07 00:41:51;;;;;;;2.27;1.50;;;;;;;;;;5049199;28;20297;-57
2022/08/07 00:44:38;;;;;;;2.47;1.50;;;;;;;;;;5057401;28;20208;-57
2022/08/07 00:47:27;;;;;;;3.27;1.40;;;;;;;;;;5048893;28;20213;-58
2022/08/07 00:50:14;;;;;;;1.67;1.33;;;;;;;;;;5049796;28;20215;-58
2022/08/07 00:53:01;;;;;;;3.30;1.60;;;;;;;;;;5055247;28;20687;-58
2022/08/07 00:55:48;;;;;;;1.80;1.30;;;;;;;;;;5059832;28;20361;-58
2022/08/07 00:58:35;;;;;;;2.90;1.50;;;;;;;;;;5056902;28;20222;-59
2022/08/07 01:01:22;;;;;;;1.83;1.23;;;;;;;;;;5059168;28;20215;-62
2022/08/07 01:04:11;;;;;;;1.47;1.37;;;;;;;;;;5051057;28;20206;-62
2022/08/07 01:06:58;;;;;;;1.60;1.17;;;;;;;;;;5062661;28;20233;-62
2022/08/07 01:09:45;;;;;;;1.97;1.37;;;;;;;;;;5050589;28;20207;-62
2022/08/07 01:12:32;;;;;;;1.47;1.23;;;;;;;;;;5059840;28;20234;-62
2022/08/07 01:15:19;;;;;;;1.10;1.00;;;;;;;;;;5060585;28;20217;-62
2022/08/07 01:18:06;;;;;;;1.77;1.30;;;;;;;;;;5061157;28;20215;-62
2022/08/07 01:21:04;;;;;;;1.10;1.00;;;;;;;;;;5060245;28;20556;-62
2022/08/07 01:23:53;;;;;;;1.67;1.53;;;;;;;;;;5060845;28;20201;-62
2022/08/07 01:26:40;;;;;;;2.50;1.50;;;;;;;;;;5055106;28;20227;-62
2022/08/07 01:29:28;;;;;;;1.67;1.17;;;;;;;;;;5053220;28;20228;-62
2022/08/07 01:32:15;;;;;;;1.40;1.20;;;;;;;;;;5052213;28;20226;-62
2022/08/07 01:35:02;;;;;;;1.57;1.20;;;;;;;;;;5045429;28;20216;-62
2022/08/07 01:37:51;;;;;;;1.73;1.43;;;;;;;;;;5053744;28;20214;-62
2022/08/07 01:40:40;;;;;;;1.60;1.10;;;;;;;;;;5051907;28;20211;-62
2022/08/07 01:43:28;;;;;;;2.87;1.30;;;;;;;;;;5058074;28;20678;-62
2022/08/07 01:46:16;;;;;;;1.50;1.33;;;;;;;;;;5047437;28;20211;-62
2022/08/07 01:49:03;;;;;;;1.93;1.20;;;;;;;;;;5062134;28;20780;-62
2022/08/07 01:51:50;;;;;;;1.87;1.33;;;;;;;;;;5051325;28;20308;-62
2022/08/07 01:54:41;;;;;;;2.17;1.40;;;;;;;;;;5050143;28;20210;-62
2022/08/07 01:57:31;;;;;;;1.63;1.10;;;;;;;;;;5053725;28;20206;-61
2022/08/07 02:00:18;;;;;;;2.33;1.33;;;;;;;;;;5059954;28;20210;-62
2022/08/07 02:03:09;;;;;;;2.57;1.33;;;;;;;;;;5047629;28;20302;-62
2022/08/07 02:06:02;;;;;;;1.90;1.43;;;;;;;;;;5062764;28;20233;-62
2022/08/07 02:08:50;;;;;;;2.00;1.30;;;;;;;;;;5041321;28;20298;-62
2022/08/07 02:11:42;;;;;;;1.40;1.30;;;;;;;;;;5056170;28;20210;-62
2022/08/07 02:14:29;;;;;;;1.20;1.07;;;;;;;;;;5050063;28;20226;-61
2022/08/07 02:17:19;;;;;;;1.60;1.20;;;;;;;;;;5060505;28;20689;-62
2022/08/07 02:20:08;;;;;;;1.13;1.10;;;;;;;;;;5043098;28;20210;-62
2022/08/07 02:23:00;;;;;;;2.80;1.27;;;;;;;;;;5062160;28;20696;-62
2022/08/07 02:25:48;;;;;;;1.20;1.10;;;;;;;;;;5053800;28;20217;-62
2022/08/07 02:28:37;;;;;;;1.30;1.00;;;;;;;;;;5048091;28;20210;-62
2022/08/07 02:31:25;;;;;;;1.50;1.10;;;;;;;;;;5052000;28;20237;-62
2022/08/07 02:34:13;;;;;;;1.90;1.70;;;;;;;;;;5042625;28;20261;-62
2022/08/07 02:37:04;;;;;;;1.30;1.20;;;;;;;;;;5047726;28;20217;-62
2022/08/07 02:39:53;;;;;;;1.10;1.10;;;;;;;;;;5047721;28;20218;-63
2022/08/07 02:42:41;;;;;;;1.33;1.23;;;;;;;;;;5060746;28;20202;-62
2022/08/07 02:45:32;;;;;;;1.37;1.13;;;;;;;;;;5046357;28;20684;-62
2022/08/07 02:48:19;;;;;;;3.50;1.37;;;;;;;;;;5057007;28;20224;-62
2022/08/07 02:51:11;;;;;;;3.17;1.63;;;;;;;;;;5047292;28;20201;-62
2022/08/07 02:54:00;;;;;;;1.50;1.40;;;;;;;;;;5059110;28;20313;-62
2022/08/07 02:56:48;;;;;;;1.60;1.43;;;;;;;;;;5054795;28;20219;-62
2022/08/07 02:59:36;;;;;;;1.30;1.20;;;;;;;;;;5060600;28;20686;-62
2022/08/07 03:02:25;;;;;;;1.40;1.30;;;;;;;;;;5041201;28;20224;-62
2022/08/07 03:05:13;;;;;;;1.43;1.20;;;;;;;;;;5062341;28;20255;-62
2022/08/07 03:08:00;;;;;;;1.40;1.30;;;;;;;;;;5053036;28;20265;-62
2022/08/07 03:10:48;;;;;;;1.70;1.20;;;;;;;;;;5060653;28;20216;-62
2022/08/07 03:13:35;;;;;;;2.17;1.37;;;;;;;;;;5047591;28;20234;-62
2022/08/07 03:16:23;;;;;;;2.13;1.47;;;;;;;;;;5053536;28;20317;-62
2022/08/07 03:19:12;;;;;;;2.67;1.87;;;;;;;;;;5048043;28;20271;-62
2022/08/07 03:21:59;;;;;;;3.83;1.43;;;;;;;;;;5054798;28;20213;-62
2022/08/07 03:24:46;;;;;;;2.10;1.50;;;;;;;;;;5039460;28;20194;-62
2022/08/07 03:27:34;;;;;;;1.47;1.30;;;;;;;;;;5057869;28;20234;-62
2022/08/07 03:30:22;;;;;;;1.60;1.43;;;;;;;;;;5045862;28;20214;-62
2022/08/07 03:33:10;;;;;;;1.83;1.30;;;;;;;;;;5054475;28;20231;-62
2022/08/07 03:35:58;;;;;;;1.83;1.23;;;;;;;;;;5042526;28;20707;-62
2022/08/07 03:38:47;;;;;;;2.03;1.30;;;;;;;;;;5059121;28;20213;-62
2022/08/07 03:41:36;;;;;;;1.20;1.10;;;;;;;;;;5039660;28;20214;-62
2022/08/07 03:44:23;;;;;;;1.73;1.63;;;;;;;;;;5060263;28;20221;-62
2022/08/07 03:47:11;;;;;;;1.10;1.10;;;;;;;;;;5048119;28;20200;-62
2022/08/07 03:49:58;;;;;;;1.50;1.40;;;;;;;;;;5050220;28;20206;-62
2022/08/07 03:52:47;;;;;;;1.53;1.20;;;;;;;;;;5059159;28;20209;-62
2022/08/07 03:55:35;;;;;;;2.60;1.57;;;;;;;;;;5054230;28;20237;-62
2022/08/07 03:58:23;;;;;;;2.00;1.37;;;;;;;;;;5057278;28;20208;-62
2022/08/07 04:01:10;;;;;;;1.57;1.47;;;;;;;;;;5051445;28;20244;-62
2022/08/07 04:03:58;;;;;;;1.47;1.37;;;;;;;;;;5059329;28;20204;-62
2022/08/07 04:06:45;;;;;;;1.70;1.60;;;;;;;;;;5056759;28;20226;-62
2022/08/07 04:09:34;;;;;;;1.23;1.13;;;;;;;;;;5056862;28;20214;-62
2022/08/07 04:12:22;;;;;;;1.10;1.00;;;;;;;;;;5045146;28;20215;-62
2022/08/07 04:15:10;;;;;;;1.40;1.30;;;;;;;;;;5058094;28;20289;-62
2022/08/07 04:17:57;;;;;;;1.50;1.40;;;;;;;;;;5044079;28;20690;-62
2022/08/07 04:20:44;;;;;;;1.40;1.30;;;;;;;;;;5060544;28;20210;-62
2022/08/07 04:23:32;;;;;;;1.83;1.33;;;;;;;;;;5050370;28;20285;-62
2022/08/07 04:26:21;;;;;;;1.40;1.30;;;;;;;;;;5051541;28;20247;-62
2022/08/07 04:29:09;;;;;;;1.77;1.67;;;;;;;;;;5043919;28;20221;-62
2022/08/07 04:31:56;;;;;;;1.50;1.40;;;;;;;;;;5060938;28;20214;-62
2022/08/07 04:34:44;;;;;;;1.20;1.10;;;;;;;;;;5047737;28;20243;-62
2022/08/07 04:37:31;;;;;;;1.50;1.40;;;;;;;;;;5052335;28;20207;-62
2022/08/07 04:40:19;;;;;;;1.30;1.20;;;;;;;;;;5045824;28;20665;-62
2022/08/07 04:43:07;;;;;;;1.10;1.10;;;;;;;;;;5052126;28;20208;-62
2022/08/07 04:46:02;;;;;;;1.20;1.10;;;;;;;;;;5052066;28;20217;-62
2022/08/07 04:48:58;;;;;;;1.83;1.47;;;;;;;;;;5058509;28;20220;-62
2022/08/07 04:51:54;;;;;;;1.70;1.60;;;;;;;;;;5039473;28;20215;-62
2022/08/07 04:54:47;;;;;;;1.67;1.40;;;;;;;;;;5059629;28;20233;-62
2022/08/07 04:57:42;;;;;;;1.50;1.40;;;;;;;;;;5054582;28;20206;-62
2022/08/07 05:00:38;;;;;;;1.83;1.30;;;;;;;;;;5055155;28;20208;-62
2022/08/07 05:03:29;;;;;;;1.47;1.37;;;;;;;;;;5048417;28;20208;-62
2022/08/07 05:06:19;;;;;;;2.23;1.50;;;;;;;;;;5054862;28;20224;-62
2022/08/07 05:09:12;;;;;;;2.47;1.70;;;;;;;;;;5054801;28;20302;-62
2022/08/07 05:12:04;;;;;;;1.70;1.53;;;;;;;;;;5048971;28;20216;-63
2022/08/07 05:14:53;;;;;;;1.70;1.57;;;;;;;;;;5056667;28;20221;-62
2022/08/07 05:17:44;;;;;;;1.53;1.43;;;;;;;;;;5044826;28;20287;-62
2022/08/07 05:20:34;;;;;;;1.83;1.73;;;;;;;;;;5065684;28;20212;-62
2022/08/07 05:23:27;;;;;;;1.60;1.50;;;;;;;;;;5051030;28;20202;-62
2022/08/07 05:26:17;;;;;;;1.60;1.50;;;;;;;;;;5044581;28;20254;-62
2022/08/07 05:29:08;;;;;;;1.50;1.40;;;;;;;;;;5046010;28;20230;-62
2022/08/07 05:31:58;;;;;;;1.60;1.50;;;;;;;;;;5057713;28;20221;-62
2022/08/07 05:34:48;;;;;;;1.17;1.07;;;;;;;;;;5055291;28;20222;-62
2022/08/07 05:37:36;;;;;;;1.40;1.30;;;;;;;;;;5055007;28;20228;-62
2022/08/07 05:40:23;;;;;;;1.53;1.43;;;;;;;;;;5055428;28;20281;-62
2022/08/07 05:43:10;;;;;;;1.50;1.40;;;;;;;;;;5062119;28;20673;-62
2022/08/07 05:46:00;;;;;;;1.50;1.40;;;;;;;;;;5053325;28;20207;-62
2022/08/07 05:48:49;;;;;;;1.67;1.60;;;;;;;;;;5054148;28;20207;-62
2022/08/07 05:51:37;;;;;;;1.57;1.47;;;;;;;;;;5049519;28;20204;-62
2022/08/07 05:54:24;;;;;;;1.80;1.70;;;;;;;;;;5045049;28;20701;-62
2022/08/07 05:57:12;;;;;;;1.50;1.40;;;;;;;;;;5053184;28;20428;-62
2022/08/07 06:00:01;;;;;;;1.60;1.50;;;;;;;;;;5061128;28;20229;-62
2022/08/07 06:02:50;;;;;;;1.43;1.33;;;;;;;;;;5056909;28;20363;-62
2022/08/07 06:05:37;;;;;;;1.60;1.50;;;;;;;;;;5054312;28;20224;-62
2022/08/07 06:08:26;;;;;;;1.63;1.50;;;;;;;;;;5055359;28;20212;-62
2022/08/07 06:11:14;;;;;;;1.77;1.67;;;;;;;;;;5054998;28;20664;-62
2022/08/07 06:14:01;;;;;;;1.53;1.50;;;;;;;;;;5058084;28;20260;-62
2022/08/07 06:16:49;;;;;;;1.60;1.50;;;;;;;;;;5044372;28;20211;-62
2022/08/07 06:19:38;;;;;;;1.90;1.80;;;;;;;;;;5054291;28;20582;-62
2022/08/07 06:22:26;;;;;;;2.00;1.80;;;;;;;;;;5056360;28;20213;-62
2022/08/07 06:25:15;;;;;;;1.50;1.40;;;;;;;;;;5051090;28;20215;-62
2022/08/07 06:28:03;;;;;;;1.60;1.50;;;;;;;;;;5053509;28;20689;-62
2022/08/07 06:30:50;;;;;;;1.90;1.80;;;;;;;;;;5056781;28;20376;-62
2022/08/07 06:33:37;;;;;;;1.53;1.43;;;;;;;;;;5049859;28;20213;-62
2022/08/07 06:36:25;;;;;;;2.30;1.77;;;;;;;;;;5059799;28;20579;-62
2022/08/07 06:39:12;;;;;;;1.80;1.70;;;;;;;;;;5046332;28;20251;-62
2022/08/07 06:42:06;;;;;;;1.50;1.40;;;;;;;;;;5057140;28;20270;-62
2022/08/07 06:44:54;;;;;;;1.67;1.57;;;;;;;;;;5042426;28;20209;-62
2022/08/07 06:47:42;;;;;;;1.60;1.50;;;;;;;;;;5062253;28;20250;-62
2022/08/07 06:50:32;;;;;;;1.67;1.60;;;;;;;;;;5049685;28;20207;-62
2022/08/07 06:53:21;;;;;;;1.73;1.63;;;;;;;;;;5049834;28;20201;-62
2022/08/07 06:56:10;;;;;;;1.50;1.40;;;;;;;;;;5046781;28;20218;-62
2022/08/07 06:58:58;;;;;;;1.40;1.30;;;;;;;;;;5057016;28;20746;-62
2022/08/07 07:01:46;;;;;;;1.87;1.77;;;;;;;;;;5053545;28;20235;-62
2022/08/07 07:04:33;;;;;;;1.80;1.70;;;;;;;;;;5051027;28;20342;-62
2022/08/07 07:07:20;;;;;;;1.73;1.63;;;;;;;;;;5045367;28;20597;-63
2022/08/07 07:10:08;;;;;;;2.00;1.77;;;;;;;;;;5058915;28;20205;-62
2022/08/07 07:12:59;;;;;;;2.40;1.70;;;;;;;;;;5041200;28;20264;-62
2022/08/07 07:15:53;;;;;;;1.83;1.63;;;;;;;;;;5060725;28;20239;-62
2022/08/07 07:18:44;;;;;;;1.57;1.47;;;;;;;;;;5059778;28;20209;-62
2022/08/07 07:21:36;;;;;;;1.67;1.57;;;;;;;;;;5045103;28;20210;-62
2022/08/07 07:24:23;;;;;;;1.67;1.57;;;;;;;;;;5054709;28;20237;-62
2022/08/07 07:27:13;;;;;;;1.60;1.50;;;;;;;;;;5049464;28;20244;-62
2022/08/07 07:30:04;;;;;;;1.83;1.73;;;;;;;;;;5057666;28;20755;-62
2022/08/07 07:32:54;;;;;;;1.70;1.60;;;;;;;;;;5048170;28;20209;-62
2022/08/07 07:35:44;;;;;;;2.00;1.80;;;;;;;;;;5057153;28;20286;-62
2022/08/07 07:38:32;;;;;;;1.97;1.87;;;;;;;;;;5051679;28;20213;-62
2022/08/07 07:41:22;;;;;;;1.90;1.77;;;;;;;;;;5057214;28;20237;-62
2022/08/07 07:44:11;;;;;;;2.33;1.90;;;;;;;;;;5045809;28;20203;-62
2022/08/07 07:47:00;;;;;;;1.83;1.73;;;;;;;;;;5057142;28;20655;-62
2022/08/07 07:49:51;;;;;;;1.80;1.70;;;;;;;;;;5042556;28;20206;-62
2022/08/07 07:52:39;;;;;;;1.90;1.80;;;;;;;;;;5060567;28;20231;-63
2022/08/07 07:55:27;;;;;;;2.00;1.90;;;;;;;;;;5050295;28;20233;-62
2022/08/07 07:58:15;;;;;;;1.77;1.67;;;;;;;;;;5062390;28;20207;-62
2022/08/07 08:01:03;;;;;;;1.97;1.87;;;;;;;;;;5046450;28;20241;-62
2022/08/07 08:03:52;;;;;;;2.23;2.03;;;;;;;;;;5055973;28;20202;-62
2022/08/07 08:06:42;;;;;;;2.30;2.10;;;;;;;;;;5043217;28;20234;-62
2022/08/07 08:09:31;;;;;;;2.00;1.90;;;;;;;;;;5044802;28;20301;-62
2022/08/07 08:12:18;;;;;;;2.23;2.03;;;;;;;;;;5048885;28;20214;-62
2022/08/07 08:15:06;;;;;;;2.20;2.10;;;;;;;;;;5054830;28;20319;-62
2022/08/07 08:17:54;;;;;;;2.33;2.13;;;;;;;;;;5051367;28;20655;-62
2022/08/07 08:20:43;;;;;;;1.63;1.63;;;;;;;;;;5048903;28;20234;-62
2022/08/07 08:29:48;;;;;;;2.17;2.00;;;;;;;;;;5057465;28;20948;-62
2022/08/07 08:32:39;;;;;;;2.33;2.23;;;;;;;;;;5047667;28;20222;-62
2022/08/07 08:35:28;;;;;;;2.20;2.10;;;;;;;;;;5054852;28;20253;-62
2022/08/07 08:38:19;;;;;;;2.20;2.10;;;;;;;;;;5053947;28;20250;-62
2022/08/07 08:41:14;;;;;;;2.00;1.90;;;;;;;;;;5055859;28;20258;-62
2022/08/07 08:44:06;;;;;;;2.20;2.00;;;;;;;;;;5058472;28;20211;-62
2022/08/07 08:47:02;;;;;;;2.10;2.00;;;;;;;;;;5054355;28;20197;-62
2022/08/07 08:49:56;;;;;;;2.20;2.10;;;;;;;;;;5047591;28;20208;-62
2022/08/07 08:52:49;;;;;;;2.17;2.07;;;;;;;;;;5051909;28;20229;-62
2022/08/07 08:55:41;;;;;;;2.37;2.20;;;;;;;;;;5048647;28;20249;-63
2022/08/07 08:58:36;;;;;;;2.20;2.10;;;;;;;;;;5052343;28;20579;-62
2022/08/07 09:01:27;;;;;;;2.37;2.17;;;;;;;;;;5048528;28;20655;-62
2022/08/07 09:04:18;;;;;;;2.70;2.60;;;;;;;;;;5050827;28;20574;-62
2022/08/07 09:07:18;;;;;;;2.30;2.20;;;;;;;;;;5055481;28;20711;-62
2022/08/07 09:10:14;;;;;;;2.70;2.50;;;;;;;;;;5057666;28;20265;-62
2022/08/07 09:13:09;;;;;;;2.67;2.50;;;;;;;;;;5060315;28;20220;-62
2022/08/07 09:16:05;;;;;;;2.90;2.70;;;;;;;;;;5046000;28;20308;-62
2022/08/07 09:19:13;;;;;;;2.53;2.43;;;;;;;;;;5052652;28;20253;-62
2022/08/07 09:22:12;;;;;;;2.55;2.30;;;;;;;;;;5051328;28;20307;-62
2022/08/07 09:25:06;;;;;;;2.83;2.63;;;;;;;;;;5058429;28;20293;-63
2022/08/07 09:28:02;;;;;;;2.67;2.53;;;;;;;;;;5049124;28;20238;-62
2022/08/07 09:31:06;;;;;;;3.40;2.83;;;;;;;;;;5057624;28;20258;-62
2022/08/07 09:34:13;;;;;;;3.10;2.90;;;;;;;;;;5054064;28;20208;-62
2022/08/07 09:37:04;;;;;;;2.70;2.60;;;;;;;;;;5059332;28;20205;-63
2022/08/07 09:40:01;;;;;;;3.10;2.90;;;;;;;;;;5061017;28;20506;-62
2022/08/07 09:42:56;;;;;;;2.92;2.80;;;;;;;;;;5058467;28;20244;-62
2022/08/07 09:45:53;;;;;;;2.90;2.80;;;;;;;;;;5061073;28;20253;-62
2022/08/07 09:48:54;;;;;;;3.25;3.05;;;;;;;;;;5039196;28;20247;-62
2022/08/07 09:51:55;;;;;;;3.05;2.80;;;;;;;;;;5054832;28;20209;-62
2022/08/07 09:54:46;;;;;;;3.10;2.90;;;;;;;;;;5051732;28;20613;-62
2022/08/07 09:57:54;;;;;;;3.45;3.13;;;;;;;;;;5059043;28;20642;-62
2022/08/07 10:00:55;;;;;;;3.30;3.00;;;;;;;;;;5054372;28;20280;-62
2022/08/07 10:04:14;;;;;;;2.90;2.80;;;;;;;;;;5053408;28;20733;-62
2022/08/07 10:07:40;;;;;;;3.10;2.90;;;;;;;;;;5055952;28;20224;-62
2022/08/07 10:10:40;;;;;;;3.50;3.30;;;;;;;;;;5042177;28;20218;-62
2022/08/07 10:13:44;;;;;;;3.45;3.25;;;;;;;;;;5064041;28;20280;-62
2022/08/07 10:16:53;;;;;;;5.18;3.22;;;;;;;;;;5038440;28;20260;-62
2022/08/07 10:20:00;;;;;;;3.38;3.17;;;;;;;;;;5057859;28;20200;-62
2022/08/07 10:23:02;;;;;;;3.20;3.10;;;;;;;;;;5047820;28;20894;-62
2022/08/07 10:26:01;;;;;;;3.40;3.13;;;;;;;;;;5059810;28;20321;-62
2022/08/07 10:28:58;;;;;;;3.63;3.42;;;;;;;;;;5058736;28;20246;-62
2022/08/07 10:32:07;;;;;;;3.42;3.28;;;;;;;;;;5043901;28;20668;-62
2022/08/07 10:35:09;;;;;;;3.40;3.20;;;;;;;;;;5057768;28;20303;-62
2022/08/07 10:38:19;;;;;;;3.83;3.50;;;;;;;;;;5039557;28;20218;-62
2022/08/07 10:41:14;;;;;;;3.50;3.30;;;;;;;;;;5058897;28;20208;-62
2022/08/07 10:44:12;;;;;;;3.90;3.70;;;;;;;;;;5050606;28;20208;-62
2022/08/07 10:47:06;;;;;;;3.70;3.45;;;;;;;;;;5053862;28;20196;-62
2022/08/07 10:50:01;;;;;;;3.60;3.40;;;;;;;;;;5043861;28;20573;-62
2022/08/07 10:52:57;;;;;;;3.33;3.17;;;;;;;;;;5050203;28;20199;-62
2022/08/07 10:55:49;;;;;;;3.72;3.53;;;;;;;;;;5059997;28;20238;-62
2022/08/07 10:58:55;;;;;;;3.85;3.65;;;;;;;;;;5056685;28;20749;-62
2022/08/07 11:01:51;;;;;;;3.70;3.47;;;;;;;;;;5057584;28;20301;-62
2022/08/07 11:04:59;;;;;;;3.60;3.40;;;;;;;;;;5047787;28;20207;-62
2022/08/07 11:07:55;;;;;;;4.00;3.78;;;;;;;;;;5060488;28;20210;-62
2022/08/07 11:10:45;;;;;;;3.53;3.33;;;;;;;;;;5040286;28;20200;-62
2022/08/07 11:13:36;;;;;;;3.70;3.50;;;;;;;;;;5063011;28;20204;-62
2022/08/07 11:16:28;;;;;;;4.10;3.90;;;;;;;;;;5041607;28;20228;-62
2022/08/07 11:19:20;;;;;;;4.20;4.00;;;;;;;;;;5049211;28;20675;-62
2022/08/07 11:22:12;;;;;;;4.15;3.95;;;;;;;;;;5052149;28;20647;-62
2022/08/07 11:25:11;;;;;;;3.75;3.45;;;;;;;;;;5058813;28;20663;-63
2022/08/07 11:28:04;;;;;;;4.47;4.18;;;;;;;;;;5046686;28;20247;-62
2022/08/07 11:30:57;;;;;;;4.05;3.85;;;;;;;;;;5048138;28;20668;-62
2022/08/07 11:33:47;;;;;;;4.10;3.90;;;;;;;;;;5058400;28;20290;-62
2022/08/07 11:36:43;;;;;;;3.92;3.72;;;;;;;;;;5052419;28;20238;-62
2022/08/07 11:39:44;;;;;;;4.00;3.80;;;;;;;;;;5059088;28;20207;-62
2022/08/07 11:42:44;;;;;;;4.32;4.05;;;;;;;;;;5047070;28;20211;-62
2022/08/07 11:45:44;;;;;;;4.25;4.05;;;;;;;;;;5060795;28;20209;-62
2022/08/07 11:48:56;;;;;;;4.35;4.15;;;;;;;;;;5051416;28;20218;-62
2022/08/07 11:51:59;;;;;;;4.40;4.20;;;;;;;;;;5047996;28;20259;-62
2022/08/07 11:55:00;;;;;;;4.22;3.97;;;;;;;;;;5045962;28;20213;-62
2022/08/07 11:58:11;;;;;;;4.60;4.25;;;;;;;;;;5058854;28;20206;-62
2022/08/07 12:01:05;;;;;;;4.97;4.68;;;;;;;;;;5055476;28;20290;-62
2022/08/07 12:04:17;;;;;;;4.20;3.90;;;;;;;;;;5039271;28;20207;-62
2022/08/07 12:07:12;;;;;;;4.47;4.28;;;;;;;;;;5056555;28;20234;-62
2022/08/07 12:10:04;;;;;;;4.60;4.40;;;;;;;;;;5042786;28;20207;-62
2022/08/07 12:12:57;;;;;;;5.07;4.72;;;;;;;;;;5058681;28;20276;-62
2022/08/07 12:15:50;;;;;;;4.63;4.38;;;;;;;;;;5036912;28;20244;-61
2022/08/07 12:18:43;;;;;;;4.60;4.40;;;;;;;;;;5048875;28;20213;-62
2022/08/07 12:21:37;;;;;;;4.63;4.43;;;;;;;;;;5054071;28;20210;-62
2022/08/07 12:24:31;;;;;;;4.65;4.45;;;;;;;;;;5058727;28;20588;-62
2022/08/07 12:27:19;;;;;;;5.25;4.95;;;;;;;;;;5053224;28;20238;-62
2022/08/07 12:30:09;;;;;;;5.05;4.63;;;;;;;;;;5052044;28;20289;-62
2022/08/07 12:33:04;;;;;;;4.90;4.60;;;;;;;;;;5047423;28;20217;-62
2022/08/07 12:35:53;;;;;;;4.60;4.40;;;;;;;;;;5048870;28;20221;-62
2022/08/07 12:38:43;;;;;;;5.07;4.78;;;;;;;;;;5046977;28;20209;-62
2022/08/07 12:41:33;;;;;;;5.70;5.30;;;;;;;;;;5043116;28;20695;-62
2022/08/07 12:44:23;;;;;;;4.78;4.47;;;;;;;;;;5057070;28;20308;-62
2022/08/07 12:47:24;;;;;;;5.55;5.25;;;;;;;;;;5049686;28;20212;-62
2022/08/07 12:50:18;;;;;;;5.40;5.10;;;;;;;;;;5057308;28;20652;-62
2022/08/07 12:53:13;;;;;;;5.20;4.90;;;;;;;;;;5044938;28;20212;-62
2022/08/07 12:56:09;;;;;;;5.57;5.27;;;;;;;;;;5058630;28;20226;-62
2022/08/07 12:58:58;;;;;;;5.28;5.00;;;;;;;;;;5044104;28;20242;-62
2022/08/07 13:01:55;;;;;;;6.23;5.83;;;;;;;;;;5049836;28;20242;-62
2022/08/07 13:05:00;;;;;;;5.70;5.30;;;;;;;;;;5047154;28;20766;-62
2022/08/07 13:08:16;;;;;;;5.60;5.30;;;;;;;;;;5058992;28;20208;-62
2022/08/07 13:11:13;;;;;;;5.53;5.23;;;;;;;;;;5051688;28;20210;-62
2022/08/07 13:14:07;;;;;;;5.50;5.20;;;;;;;;;;5039663;28;20292;-62
2022/08/07 13:17:01;;;;;;;5.40;5.10;;;;;;;;;;5049149;28;20233;-62
2022/08/07 13:19:54;;;;;;;5.50;5.20;;;;;;;;;;5040422;28;20340;-62
2022/08/07 13:22:49;;;;;;;5.60;5.30;;;;;;;;;;5056159;28;20198;-62
2022/08/07 13:25:42;;;;;;;5.33;5.03;;;;;;;;;;5044980;28;20208;-62
2022/08/07 13:28:35;;;;;;;5.40;5.10;;;;;;;;;;5051814;28;20256;-62
2022/08/07 13:31:27;;;;;;;5.30;5.00;;;;;;;;;;5045635;28;20202;-62
2022/08/07 13:34:23;;;;;;;5.37;5.07;;;;;;;;;;5054375;28;20294;-62
2022/08/07 13:37:17;;;;;;;5.35;5.05;;;;;;;;;;5047395;28;20704;-62
2022/08/07 13:40:13;;;;;;;5.53;5.23;;;;;;;;;;5059570;28;20214;-62
2022/08/07 13:43:05;;;;;;;5.97;5.67;;;;;;;;;;5059602;28;20203;-63
2022/08/07 13:45:54;;;;;;;5.23;4.93;;;;;;;;;;5052851;28;20210;-62
2022/08/07 13:48:46;;;;;;;5.57;5.27;;;;;;;;;;5055368;28;20204;-62
2022/08/07 13:51:34;;;;;;;5.15;4.85;;;;;;;;;;5052614;28;20210;-62
2022/08/07 13:54:30;;;;;;;5.40;5.10;;;;;;;;;;5057412;28;20703;-62
2022/08/07 13:57:18;;;;;;;5.43;5.13;;;;;;;;;;5051546;28;20226;-62
2022/08/07 14:00:08;;;;;;;5.72;5.43;;;;;;;;;;5054864;28;20224;-62
2022/08/07 14:02:57;;;;;;;5.43;5.13;;;;;;;;;;5056606;28;20260;-62
2022/08/07 14:05:46;;;;;;;5.20;4.90;;;;;;;;;;5050127;28;20317;-61
2022/08/07 14:08:34;;;;;;;5.83;5.43;;;;;;;;;;5048588;28;20654;-62
2022/08/07 14:11:24;;;;;;;5.32;5.03;;;;;;;;;;5049693;28;20541;-62
2022/08/07 14:14:15;;;;;;;5.32;5.03;;;;;;;;;;5051319;28;20738;-62
2022/08/07 14:17:04;;;;;;;5.40;5.10;;;;;;;;;;5057868;28;20591;-62
2022/08/07 14:19:56;;;;;;;5.40;5.10;;;;;;;;;;5052164;28;20248;-62
2022/08/07 14:22:48;;;;;;;5.45;5.15;;;;;;;;;;5058197;28;20297;-62
2022/08/07 14:25:38;;;;;;;4.90;4.63;;;;;;;;;;5046824;28;20355;-62
2022/08/07 14:28:29;;;;;;;4.70;4.50;;;;;;;;;;5057242;28;20236;-61
2022/08/07 14:31:17;;;;;;;5.10;4.80;;;;;;;;;;5043156;28;20688;-62
2022/08/07 14:34:05;;;;;;;4.97;4.67;;;;;;;;;;5049770;28;20216;-62
2022/08/07 14:36:53;;;;;;;5.10;4.80;;;;;;;;;;5045417;28;20217;-62
2022/08/07 14:39:42;;;;;;;5.27;4.97;;;;;;;;;;5049574;28;20203;-61
2022/08/07 14:42:31;;;;;;;5.60;5.30;;;;;;;;;;5047726;28;20210;-62
2022/08/07 14:45:20;;;;;;;4.87;4.67;;;;;;;;;;5049378;28;20208;-62
2022/08/07 14:48:08;;;;;;;5.30;5.00;;;;;;;;;;5048697;28;20260;-62
2022/08/07 14:50:57;;;;;;;5.30;5.00;;;;;;;;;;5045361;28;20205;-62
2022/08/07 14:53:46;;;;;;;4.57;4.37;;;;;;;;;;5044802;28;20207;-61
2022/08/07 14:56:33;;;;;;;5.30;5.00;;;;;;;;;;5049939;28;20361;-62
2022/08/07 14:59:24;;;;;;;5.30;5.00;;;;;;;;;;5047244;28;20203;-62
2022/08/07 15:02:14;;;;;;;4.77;4.47;;;;;;;;;;5046375;28;20335;-62
2022/08/07 15:05:02;;;;;;;4.57;4.37;;;;;;;;;;5049210;28;20210;-62
2022/08/07 15:07:50;;;;;;;4.70;4.50;;;;;;;;;;5049787;28;20198;-61
2022/08/07 15:10:41;;;;;;;4.57;4.30;;;;;;;;;;5050406;28;20707;-62
2022/08/07 15:13:29;;;;;;;4.60;4.40;;;;;;;;;;5045961;28;20214;-62
2022/08/07 15:16:17;;;;;;;4.47;4.20;;;;;;;;;;5046574;28;20228;-62
2022/08/07 15:19:10;;;;;;;4.77;4.47;;;;;;;;;;5048172;28;20203;-62
2022/08/07 15:21:58;;;;;;;4.60;4.40;;;;;;;;;;5051104;28;20208;-62
2022/08/07 15:24:49;;;;;;;4.90;4.50;;;;;;;;;;5053597;28;20537;-62
2022/08/07 15:27:40;;;;;;;4.73;4.43;;;;;;;;;;5059577;28;20352;-62
2022/08/07 15:30:30;;;;;;;4.37;4.17;;;;;;;;;;5045988;28;20292;-62
2022/08/07 15:33:18;;;;;;;4.53;4.33;;;;;;;;;;5045989;28;20671;-62
2022/08/07 15:36:08;;;;;;;4.90;4.70;;;;;;;;;;5045035;28;20207;-62
2022/08/07 15:38:56;;;;;;;4.83;4.53;;;;;;;;;;5050905;28;20204;-62
2022/08/07 15:41:59;;;;;;;4.73;4.53;;;;;;;;;;5045290;28;20203;-62
2022/08/07 15:44:49;;;;;;;5.17;4.87;;;;;;;;;;5040042;28;20233;-62
2022/08/07 15:47:39;;;;;;;4.67;4.40;;;;;;;;;;5051014;28;20206;-62
2022/08/07 15:50:28;;;;;;;4.50;4.30;;;;;;;;;;5044909;28;20214;-62
2022/08/07 15:53:23;;;;;;;4.63;4.33;;;;;;;;;;5046209;28;20216;-62
2022/08/07 15:56:12;;;;;;;4.50;4.30;;;;;;;;;;5046812;28;20215;-61
2022/08/07 15:59:01;;;;;;;4.37;4.17;;;;;;;;;;5045331;28;20212;-62
2022/08/07 16:01:53;;;;;;;4.60;4.40;;;;;;;;;;5047617;28;20220;-62
2022/08/07 16:04:41;;;;;;;4.77;4.47;;;;;;;;;;5047238;28;20206;-62
2022/08/07 16:07:32;;;;;;;4.20;4.00;;;;;;;;;;5044316;28;20682;-61
2022/08/07 16:10:22;;;;;;;4.60;4.40;;;;;;;;;;5047371;28;20665;-62
2022/08/07 16:13:42;;;;;;;4.20;4.00;;;;;;;;;;5044460;28;20202;-61
2022/08/07 16:16:44;;;;;;;4.50;4.30;;;;;;;;;;5049344;28;20209;-62
2022/08/07 16:19:58;;;;;;;4.47;4.27;;;;;;;;;;5044586;28;20287;-62
2022/08/07 16:23:01;;;;;;;4.13;3.93;;;;;;;;;;5053441;28;20227;-62
2022/08/07 16:26:00;;;;;;;4.10;3.90;;;;;;;;;;5042598;28;20243;-62
2022/08/07 16:29:09;;;;;;;3.97;3.77;;;;;;;;;;5049736;28;20213;-61
2022/08/07 16:32:00;;;;;;;3.90;3.70;;;;;;;;;;5054235;28;20631;-62
2022/08/07 16:34:50;;;;;;;4.40;4.20;;;;;;;;;;5044743;28;20242;-62
2022/08/07 16:38:09;;;;;;;4.70;4.40;;;;;;;;;;5051742;28;20232;-62
2022/08/07 16:41:19;;;;;;;4.30;4.10;;;;;;;;;;5042983;28;20212;-62
2022/08/07 16:44:22;;;;;;;4.10;3.90;;;;;;;;;;5048280;28;20203;-62
2022/08/07 16:47:51;;;;;;;4.10;3.90;;;;;;;;;;5042234;28;20287;-62
2022/08/07 16:50:46;;;;;;;4.03;3.83;;;;;;;;;;5032927;28;20216;-62
2022/08/07 16:53:55;;;;;;;4.10;3.90;;;;;;;;;;5049909;28;20648;-62
2022/08/07 16:57:01;;;;;;;4.30;4.10;;;;;;;;;;5042300;28;20228;-62
2022/08/07 16:59:56;;;;;;;3.80;3.60;;;;;;;;;;5050359;28;20205;-62
2022/08/07 17:03:02;;;;;;;3.80;3.60;;;;;;;;;;5051012;28;20698;-62
2022/08/07 17:06:00;;;;;;;4.43;4.20;;;;;;;;;;5053881;28;20233;-62
2022/08/07 17:08:51;;;;;;;4.00;3.80;;;;;;;;;;5050782;28;20208;-61
2022/08/07 17:11:46;;;;;;;4.00;3.80;;;;;;;;;;5052044;28;20216;-62
2022/08/07 17:14:43;;;;;;;3.93;3.73;;;;;;;;;;5053705;28;20291;-62
2022/08/07 17:17:38;;;;;;;3.90;3.70;;;;;;;;;;5046790;28;20316;-62
2022/08/07 17:20:31;;;;;;;4.00;3.80;;;;;;;;;;5046898;28;20203;-62